Time;durP1;ratioP1;P1;durP2;ratioP2;P2;SDS_P1;SDS_P2;PMS_P1;PMS_P2;Temp;Humidity;BMP_temperature;BMP_pressure;BME280_temperature;BME280_humidity;BME280_pressure;Samples;Min_cycle;Max_cycle;Signal;HPM_P1;HPM_P2
2022/11/11 00:01:16;;;;;;;9.20;6.63;;;12.00;99.90;;;;;;4987776;28;20213;-32
2022/11/11 00:03:47;;;;;;;10.17;7.40;;;12.00;99.90;;;;;;4987760;28;20285;-32
2022/11/11 00:06:15;;;;;;;7.93;6.97;;;12.00;99.90;;;;;;4992789;28;20297;-32
2022/11/11 00:08:46;;;;;;;8.90;6.83;;;11.90;99.90;;;;;;5006862;28;20615;-32
2022/11/11 00:11:19;;;;;;;9.07;7.37;;;11.90;99.90;;;;;;5006867;28;20288;-32
2022/11/11 00:13:51;;;;;;;7.83;7.03;;;11.90;99.90;;;;;;5007198;28;20271;-31
2022/11/11 00:16:19;;;;;;;7.57;6.67;;;11.90;99.90;;;;;;5007355;28;20297;-32
2022/11/11 00:27:04;;;;;;;9.10;7.13;;;11.70;99.90;;;;;;5004240;28;20225;-32
2022/11/11 00:29:31;;;;;;;8.90;7.13;;;11.70;99.90;;;;;;4987366;28;20230;-32
2022/11/11 00:35:52;;;;;;;7.63;6.87;;;11.60;99.90;;;;;;4987055;28;20575;-32
2022/11/11 00:37:37;;;;;;;9.20;6.50;;;11.60;99.90;;;;;;4986158;28;20202;-31
2022/11/11 00:40:08;;;;;;;9.77;7.50;;;11.60;99.90;;;;;;4985707;28;20224;-32
2022/11/11 00:42:41;;;;;;;9.60;7.57;;;11.50;99.90;;;;;;4986871;28;20229;-32
2022/11/11 00:45:12;;;;;;;10.73;7.53;;;11.50;99.90;;;;;;4985714;28;20588;-32
2022/11/11 00:53:22;;;;;;;9.50;7.10;;;11.50;99.90;;;;;;4986294;28;20588;-32
2022/11/11 00:55:56;;;;;;;9.37;7.77;;;11.40;99.90;;;;;;4986467;28;20233;-31
2022/11/11 00:58:27;;;;;;;9.47;7.40;;;11.40;99.90;;;;;;4986963;28;20214;-31
2022/11/11 01:00:57;;;;;;;8.97;7.00;;;11.40;99.90;;;;;;4986546;28;20213;-32
2022/11/11 01:03:26;;;;;;;9.43;6.90;;;11.40;99.90;;;;;;4986070;28;20234;-31
2022/11/11 01:05:58;;;;;;;10.53;7.60;;;11.40;99.90;;;;;;4986686;28;20257;-32
2022/11/11 01:08:29;;;;;;;8.77;7.33;;;11.40;99.90;;;;;;4985645;28;20198;-32
2022/11/11 01:10:56;;;;;;;8.73;7.20;;;11.40;99.90;;;;;;4986820;28;20198;-32
2022/11/11 01:13:29;;;;;;;10.77;7.90;;;11.40;99.90;;;;;;4990419;28;20227;-32
2022/11/11 01:16:06;;;;;;;8.83;7.30;;;11.40;99.90;;;;;;5006492;28;20216;-32
2022/11/11 01:18:33;;;;;;;9.47;7.77;;;11.40;99.90;;;;;;5006144;28;20197;-32
2022/11/11 01:21:12;;;;;;;9.00;7.37;;;11.40;99.90;;;;;;5018935;28;20237;-32
2022/11/11 01:23:47;;;;;;;9.50;7.33;;;11.40;99.90;;;;;;4987632;28;20217;-32
2022/11/11 01:26:19;;;;;;;11.70;7.97;;;11.40;99.90;;;;;;4985880;28;20206;-30
2022/11/11 01:28:54;;;;;;;8.10;7.03;;;11.40;99.90;;;;;;4985983;28;20213;-31
2022/11/11 01:31:23;;;;;;;9.97;7.53;;;11.40;99.90;;;;;;4985583;28;20518;-31
2022/11/11 01:33:50;;;;;;;11.00;7.90;;;11.40;99.90;;;;;;4985794;28;20946;-32
2022/11/11 01:36:20;;;;;;;9.33;7.70;;;11.40;99.90;;;;;;5003496;28;20221;-31
2022/11/11 01:38:50;;;;;;;11.60;8.10;;;11.50;99.90;;;;;;5005418;28;20292;-31
2022/11/11 01:41:32;;;;;;;10.90;7.87;;;11.50;99.90;;;;;;5005018;28;20214;-31
2022/11/11 01:44:43;;;;;;;11.00;8.10;;;11.50;99.90;;;;;;5003831;28;20315;-32
2022/11/11 01:47:17;;;;;;;9.37;8.03;;;11.50;99.90;;;;;;5004526;28;20212;-31
2022/11/11 01:49:53;;;;;;;14.93;8.77;;;11.50;99.90;;;;;;5005580;28;20252;-31
2022/11/11 01:52:40;;;;;;;13.33;8.93;;;11.50;99.90;;;;;;5004122;28;20190;-31
2022/11/11 01:55:20;;;;;;;12.30;9.10;;;11.50;99.90;;;;;;5005306;28;20214;-31
2022/11/11 01:58:03;;;;;;;12.83;9.30;;;11.50;99.90;;;;;;5001856;28;20205;-32
2022/11/11 02:00:30;;;;;;;10.87;8.10;;;11.50;99.90;;;;;;5007315;28;20234;-32
2022/11/11 02:03:10;;;;;;;11.93;9.17;;;11.50;99.90;;;;;;4993160;28;20202;-32
2022/11/11 02:05:44;;;;;;;11.63;9.10;;;11.50;99.90;;;;;;5006913;28;20541;-31
2022/11/11 02:08:30;;;;;;;12.07;8.97;;;11.60;99.90;;;;;;4993881;28;20303;-31
2022/11/11 02:11:10;;;;;;;11.13;8.60;;;11.60;99.90;;;;;;5009335;28;20217;-31
2022/11/11 02:16:30;;;;;;;12.23;9.60;;;11.60;99.90;;;;;;4996591;28;20213;-31
2022/11/11 02:18:57;;;;;;;11.37;9.13;;;11.60;99.90;;;;;;5008702;28;20248;-31
2022/11/11 02:21:40;;;;;;;13.10;9.30;;;11.60;99.90;;;;;;5006928;28;20621;-31
2022/11/11 02:24:11;;;;;;;10.13;9.03;;;11.60;99.90;;;;;;5008706;28;20217;-30
2022/11/11 02:26:39;;;;;;;14.47;9.53;;;11.60;99.90;;;;;;5007675;28;20456;-31
2022/11/11 02:29:20;;;;;;;13.53;8.80;;;11.60;99.90;;;;;;5008419;28;20591;-30
2022/11/11 02:31:50;;;;;;;13.83;9.17;;;11.70;99.90;;;;;;5008080;28;20233;-30
2022/11/11 02:34:20;;;;;;;10.27;8.77;;;11.70;99.90;;;;;;5008545;28;20719;-30
2022/11/11 02:36:47;;;;;;;11.30;8.70;;;11.70;99.90;;;;;;5022098;28;20198;-30
2022/11/11 02:39:14;;;;;;;10.50;8.93;;;11.70;99.90;;;;;;5008350;28;20587;-30
2022/11/11 02:41:56;;;;;;;11.23;9.27;;;11.70;99.90;;;;;;5006626;28;20213;-30
2022/11/11 02:44:26;;;;;;;11.67;9.27;;;11.70;99.90;;;;;;5006849;28;20563;-31
2022/11/11 02:46:54;;;;;;;10.67;9.10;;;11.70;99.90;;;;;;5006998;28;20763;-31
2022/11/11 02:49:23;;;;;;;11.77;9.37;;;11.70;99.90;;;;;;5023165;28;20368;-30
2022/11/11 02:51:53;;;;;;;12.70;9.70;;;11.70;99.90;;;;;;5007182;28;20300;-32
2022/11/11 02:54:20;;;;;;;11.27;8.67;;;11.80;99.90;;;;;;5008418;28;20205;-31
2022/11/11 02:57:06;;;;;;;10.57;8.80;;;11.80;99.90;;;;;;5007903;28;20205;-32
2022/11/11 02:59:38;;;;;;;10.13;8.60;;;11.80;99.90;;;;;;5022533;28;20751;-31
2022/11/11 03:02:09;;;;;;;11.53;8.80;;;11.70;99.90;;;;;;5007864;28;20284;-31
2022/11/11 03:04:38;;;;;;;13.87;9.37;;;11.70;99.90;;;;;;5007914;28;20273;-31
2022/11/11 03:07:08;;;;;;;10.97;8.50;;;11.80;99.90;;;;;;5005987;28;20206;-31
2022/11/11 03:09:35;;;;;;;10.93;8.30;;;11.80;99.90;;;;;;5005234;28;20200;-30
2022/11/11 03:12:05;;;;;;;11.57;9.00;;;11.80;99.90;;;;;;4989767;28;21044;-30
2022/11/11 03:14:32;;;;;;;10.97;9.50;;;11.80;99.90;;;;;;4988367;28;20658;-31
2022/11/11 03:19:50;;;;;;;11.60;9.40;;;11.70;99.90;;;;;;4988021;28;20767;-30
2022/11/11 03:22:22;;;;;;;9.47;8.43;;;11.70;99.90;;;;;;4987017;28;20616;-30
2022/11/11 03:27:56;;;;;;;10.90;8.67;;;11.70;99.90;;;;;;4987755;28;20198;-29
2022/11/11 03:30:24;;;;;;;10.07;8.87;;;11.70;99.90;;;;;;4988262;28;20309;-30
2022/11/11 03:32:51;;;;;;;11.90;9.03;;;11.60;99.90;;;;;;5005880;28;20363;-30
2022/11/11 03:35:18;;;;;;;10.00;9.00;;;11.70;99.90;;;;;;5007601;28;20205;-30
2022/11/11 03:40:33;;;;;;;10.60;8.53;;;11.60;99.90;;;;;;5007196;28;20689;-30
2022/11/11 03:43:00;;;;;;;8.50;7.67;;;11.60;99.90;;;;;;5005362;28;20724;-30
2022/11/11 03:45:33;;;;;;;9.90;8.73;;;11.60;99.90;;;;;;5007143;28;20248;-30
2022/11/11 03:48:01;;;;;;;10.17;8.20;;;11.60;99.90;;;;;;5021701;28;20233;-30
2022/11/11 03:50:28;;;;;;;9.43;8.17;;;11.60;99.90;;;;;;5007530;28;20198;-30
2022/11/11 03:52:55;;;;;;;9.73;8.13;;;11.60;99.90;;;;;;5005482;28;20233;-30
2022/11/11 03:55:22;;;;;;;11.80;8.63;;;11.60;99.90;;;;;;5006943;28;20206;-30
2022/11/11 03:57:52;;;;;;;9.83;8.30;;;11.60;99.90;;;;;;5006793;28;20218;-30
2022/11/11 04:00:23;;;;;;;9.87;8.17;;;11.60;99.90;;;;;;5022017;28;20216;-30
2022/11/11 04:11:34;;;;;;;11.23;8.40;;;11.50;99.90;;;;;;4987178;28;20218;-30
2022/11/11 04:16:53;;;;;;;11.03;8.23;;;11.40;99.90;;;;;;4989363;28;20217;-30
2022/11/11 04:22:11;;;;;;;9.63;8.63;;;11.30;99.90;;;;;;5006033;28;20549;-30
2022/11/11 04:27:25;;;;;;;11.87;8.50;;;11.20;99.90;;;;;;5006403;28;20205;-30
2022/11/11 04:29:55;;;;;;;11.27;9.10;;;11.20;99.90;;;;;;5006570;28;20208;-30
2022/11/11 04:32:41;;;;;;;9.93;8.67;;;11.10;99.90;;;;;;5006368;28;20277;-30
2022/11/11 04:35:13;;;;;;;11.70;9.03;;;11.10;99.90;;;;;;5006545;28;20205;-30
2022/11/11 04:37:51;;;;;;;9.63;7.60;;;11.00;99.90;;;;;;5005380;28;20227;-30
2022/11/11 04:43:06;;;;;;;10.67;8.50;;;10.90;99.90;;;;;;5006238;28;20212;-31
2022/11/11 04:45:35;;;;;;;10.20;8.33;;;10.90;99.90;;;;;;5005120;28;20632;-29
2022/11/11 04:48:08;;;;;;;11.27;8.40;;;10.90;99.90;;;;;;5004023;28;20241;-30
2022/11/11 04:50:36;;;;;;;9.57;7.93;;;10.90;99.90;;;;;;5005926;28;20268;-29
2022/11/11 04:53:09;;;;;;;10.10;8.07;;;10.80;99.90;;;;;;5005095;28;20591;-30
2022/11/11 04:58:28;;;;;;;9.37;8.20;;;10.80;99.90;;;;;;5000371;28;20373;-29
2022/11/11 05:00:58;;;;;;;10.87;8.13;;;10.70;99.90;;;;;;4987467;28;20206;-30
2022/11/11 05:03:27;;;;;;;10.43;7.90;;;10.70;99.90;;;;;;4986344;28;20260;-29
2022/11/11 05:08:55;;;;;;;10.63;8.33;;;10.70;99.90;;;;;;4985476;28;20245;-30
2022/11/11 05:11:28;;;;;;;11.70;8.57;;;10.60;99.90;;;;;;4999146;28;20605;-30
2022/11/11 05:22:37;;;;;;;11.10;8.93;;;10.50;99.90;;;;;;5019805;28;20205;-30
2022/11/11 05:25:25;;;;;;;10.60;8.80;;;10.50;99.90;;;;;;5020133;28;20221;-29
2022/11/11 05:27:57;;;;;;;11.60;8.30;;;10.40;99.90;;;;;;5005776;28;20667;-30
2022/11/11 05:30:27;;;;;;;12.73;8.73;;;10.40;99.90;;;;;;5005381;28;20614;-29
2022/11/11 05:32:56;;;;;;;11.10;8.70;;;10.40;99.90;;;;;;4999540;28;20210;-30
2022/11/11 05:35:28;;;;;;;8.87;7.83;;;10.40;99.90;;;;;;4985752;28;20209;-30
2022/11/11 05:40:48;;;;;;;9.37;7.93;;;10.40;99.90;;;;;;4997841;28;20241;-30
2022/11/11 05:43:20;;;;;;;9.57;7.60;;;10.30;99.90;;;;;;4985525;28;20718;-30
2022/11/11 05:45:51;;;;;;;11.43;8.27;;;10.30;99.90;;;;;;4985546;28;20273;-30
2022/11/11 05:48:19;;;;;;;13.63;8.17;;;10.30;99.90;;;;;;4985337;28;20417;-30
2022/11/11 05:50:46;;;;;;;10.53;8.00;;;10.30;99.90;;;;;;5000817;28;20206;-29
2022/11/11 05:53:22;;;;;;;9.30;7.97;;;10.20;99.90;;;;;;4991965;28;20194;-29
2022/11/11 05:55:53;;;;;;;10.70;7.87;;;10.30;99.90;;;;;;4988556;28;20223;-30
2022/11/11 05:58:20;;;;;;;12.17;7.87;;;10.20;99.90;;;;;;5003397;28;20197;-30
2022/11/11 06:00:48;;;;;;;9.10;8.17;;;10.20;99.90;;;;;;4989757;28;20206;-30
2022/11/11 06:03:17;;;;;;;9.77;8.03;;;10.20;99.90;;;;;;4988626;28;20202;-30
2022/11/11 06:05:44;;;;;;;10.83;8.20;;;10.20;99.90;;;;;;4995251;28;20244;-30
2022/11/11 06:08:11;;;;;;;13.30;8.63;;;10.10;99.90;;;;;;5000124;28;20767;-30
2022/11/11 06:10:41;;;;;;;11.10;8.37;;;10.10;99.90;;;;;;4999906;28;20221;-30
2022/11/11 06:13:09;;;;;;;12.10;8.13;;;10.10;99.90;;;;;;5000633;28;20241;-30
2022/11/11 06:15:38;;;;;;;11.90;8.20;;;10.00;99.90;;;;;;5001260;28;20215;-30
2022/11/11 06:18:08;;;;;;;11.63;8.57;;;10.10;99.90;;;;;;5000407;28;20236;-30
2022/11/11 06:20:35;;;;;;;9.43;8.17;;;10.00;99.90;;;;;;5001343;28;20213;-30
2022/11/11 06:23:04;;;;;;;9.53;8.07;;;10.00;99.90;;;;;;4993647;28;20211;-30
2022/11/11 06:28:21;;;;;;;11.40;8.23;;;10.00;99.90;;;;;;4986875;28;20208;-29
2022/11/11 06:30:51;;;;;;;9.57;8.17;;;9.90;99.90;;;;;;4987242;28;20222;-30
2022/11/11 06:33:21;;;;;;;11.17;8.30;;;9.90;99.90;;;;;;5000457;28;20194;-30
2022/11/11 06:35:51;;;;;;;10.80;8.07;;;9.90;99.90;;;;;;5000286;28;20778;-30
2022/11/11 06:38:22;;;;;;;10.67;8.07;;;9.90;99.90;;;;;;5018009;28;20213;-30
2022/11/11 06:40:50;;;;;;;8.93;7.90;;;9.90;99.90;;;;;;5004017;28;20344;-31
2022/11/11 06:43:17;;;;;;;11.67;8.43;;;9.90;99.90;;;;;;5002482;28;20252;-30
2022/11/11 06:45:50;;;;;;;13.13;8.47;;;9.90;99.90;;;;;;5004798;28;20251;-29
2022/11/11 06:48:17;;;;;;;12.37;8.10;;;9.80;99.90;;;;;;4993781;28;20684;-30
2022/11/11 06:50:47;;;;;;;9.97;8.43;;;9.80;99.90;;;;;;5003732;28;20204;-30
2022/11/11 06:53:16;;;;;;;11.77;8.87;;;9.80;99.90;;;;;;4987986;28;20186;-30
2022/11/11 06:55:44;;;;;;;12.37;9.33;;;9.80;99.90;;;;;;4988937;28;20588;-29
2022/11/11 06:58:21;;;;;;;11.97;9.03;;;9.70;99.90;;;;;;4989291;28;20210;-30
2022/11/11 07:00:51;;;;;;;11.10;8.87;;;9.70;99.90;;;;;;4991192;28;20750;-30
2022/11/11 07:03:20;;;;;;;16.83;9.10;;;9.70;99.90;;;;;;5012481;28;20239;-30
2022/11/11 07:05:54;;;;;;;11.20;8.50;;;9.70;99.90;;;;;;5005669;28;20235;-29
2022/11/11 07:08:25;;;;;;;12.33;9.43;;;9.70;99.90;;;;;;5014227;28;20205;-30
2022/11/11 07:10:53;;;;;;;10.40;8.40;;;9.60;99.90;;;;;;5007399;28;20432;-30
2022/11/11 07:13:27;;;;;;;11.03;7.83;;;9.70;99.90;;;;;;5004592;28;20281;-30
2022/11/11 07:15:56;;;;;;;11.20;8.13;;;9.60;99.90;;;;;;5015377;28;20213;-30
2022/11/11 07:18:23;;;;;;;10.10;8.10;;;9.70;99.90;;;;;;5024913;28;20205;-29
2022/11/11 07:20:51;;;;;;;12.57;9.10;;;9.60;99.90;;;;;;5010536;28;20692;-30
2022/11/11 07:23:20;;;;;;;11.70;8.60;;;9.60;99.90;;;;;;5019530;28;20196;-29
2022/11/11 07:25:47;;;;;;;14.43;9.73;;;9.60;99.90;;;;;;5010229;28;20229;-29
2022/11/11 07:28:16;;;;;;;11.63;9.43;;;9.60;99.90;;;;;;4999464;28;20204;-30
2022/11/11 07:30:46;;;;;;;11.47;8.77;;;9.60;99.90;;;;;;5025138;28;20514;-30
2022/11/11 07:33:13;;;;;;;11.23;8.83;;;9.70;99.90;;;;;;5017835;28;20304;-30
2022/11/11 07:35:40;;;;;;;11.77;9.00;;;9.60;99.90;;;;;;5018553;28;20202;-30
2022/11/11 07:38:10;;;;;;;11.17;8.73;;;9.60;99.90;;;;;;5008019;28;20202;-29
2022/11/11 07:40:37;;;;;;;11.13;8.97;;;9.60;99.90;;;;;;4994554;28;20574;-30
2022/11/11 07:43:11;;;;;;;13.13;9.57;;;9.60;99.90;;;;;;4994842;28;21598;-30
2022/11/11 07:45:41;;;;;;;13.87;9.10;;;9.70;99.90;;;;;;4994294;28;20402;-30
2022/11/11 07:48:08;;;;;;;11.27;8.93;;;9.70;99.90;;;;;;5007606;28;20233;-29
2022/11/11 07:50:40;;;;;;;15.23;8.93;;;9.70;99.90;;;;;;5004037;28;20571;-30
2022/11/11 07:53:10;;;;;;;11.83;8.67;;;9.70;99.90;;;;;;5025843;28;20201;-29
2022/11/11 07:55:39;;;;;;;10.73;9.07;;;9.80;99.90;;;;;;5026268;28;20232;-30
2022/11/11 07:58:11;;;;;;;13.17;8.77;;;9.80;99.90;;;;;;5012180;28;20228;-30
2022/11/11 08:00:45;;;;;;;12.40;8.80;;;9.80;99.90;;;;;;5018752;28;20638;-32
2022/11/11 08:03:17;;;;;;;12.30;8.43;;;9.80;99.90;;;;;;4998684;28;20202;-31
2022/11/11 08:05:49;;;;;;;10.67;8.47;;;9.80;99.90;;;;;;4988204;28;20230;-31
2022/11/11 08:08:23;;;;;;;12.47;8.87;;;9.90;99.90;;;;;;4997922;28;20204;-30
2022/11/11 08:10:57;;;;;;;9.57;8.20;;;9.90;99.90;;;;;;5023610;28;20287;-30
2022/11/11 08:13:41;;;;;;;8.97;7.00;;;9.90;99.90;;;;;;5005714;28;20212;-30
2022/11/11 08:16:14;;;;;;;11.00;7.97;;;10.00;99.90;;;;;;5006006;28;20285;-32
2022/11/11 08:18:46;;;;;;;11.20;7.63;;;10.00;99.90;;;;;;5008227;28;20208;-31
2022/11/11 08:21:15;;;;;;;9.53;7.30;;;10.00;99.90;;;;;;5023201;28;20197;-30
2022/11/11 08:23:45;;;;;;;8.30;6.40;;;10.10;99.90;;;;;;5011710;28;20223;-31
2022/11/11 08:26:34;;;;;;;9.83;6.93;;;10.20;99.90;;;;;;5021678;28;20714;-30
2022/11/11 08:29:02;;;;;;;9.90;6.77;;;10.20;99.90;;;;;;5012208;28;20205;-30
2022/11/11 08:31:34;;;;;;;7.97;6.50;;;10.20;99.90;;;;;;5021181;28;20761;-31
2022/11/11 08:34:03;;;;;;;11.93;6.70;;;10.20;99.90;;;;;;4993890;28;20209;-31
2022/11/11 08:36:33;;;;;;;9.33;6.57;;;10.30;99.90;;;;;;4995889;28;20211;-30
2022/11/11 08:39:02;;;;;;;6.83;5.70;;;10.30;99.90;;;;;;5018115;28;20233;-30
2022/11/11 08:41:34;;;;;;;6.93;6.17;;;10.40;99.90;;;;;;5004309;28;20276;-30
2022/11/11 08:44:03;;;;;;;7.97;6.40;;;10.40;99.90;;;;;;5009542;28;20552;-31
2022/11/11 08:46:33;;;;;;;9.07;6.07;;;10.50;99.90;;;;;;5019729;28;20689;-31
2022/11/11 08:49:08;;;;;;;7.07;5.37;;;10.50;99.90;;;;;;5010678;28;20247;-31
2022/11/11 08:51:37;;;;;;;7.70;4.93;;;10.60;99.90;;;;;;5004584;28;20224;-30
2022/11/11 08:54:11;;;;;;;7.23;5.63;;;10.60;99.90;;;;;;5009508;28;20204;-31
2022/11/11 08:56:42;;;;;;;6.00;5.00;;;10.60;99.90;;;;;;5011781;28;20247;-31
2022/11/11 08:59:10;;;;;;;5.63;5.03;;;10.70;99.90;;;;;;5015084;28;20284;-31
2022/11/11 09:01:37;;;;;;;7.57;4.97;;;10.70;99.90;;;;;;5018114;28;20210;-30
2022/11/11 09:04:05;;;;;;;4.93;4.23;;;10.80;99.90;;;;;;5005101;28;20200;-31
2022/11/11 09:06:52;;;;;;;5.10;4.20;;;10.80;99.90;;;;;;5004285;28;20609;-30
2022/11/11 09:09:19;;;;;;;10.90;4.53;;;10.90;99.90;;;;;;5001318;28;20229;-30
2022/11/11 09:11:46;;;;;;;5.47;4.43;;;10.90;99.90;;;;;;5015098;28;20205;-30
2022/11/11 09:14:13;;;;;;;5.53;4.40;;;11.00;99.90;;;;;;5008332;28;20208;-30
2022/11/11 09:16:40;;;;;;;5.77;4.23;;;11.00;99.90;;;;;;5011992;28;20201;-31
2022/11/11 09:19:07;;;;;;;4.73;3.93;;;11.10;99.90;;;;;;5023038;28;20209;-31
2022/11/11 09:21:37;;;;;;;6.30;4.53;;;11.10;99.90;;;;;;5012615;28;20231;-31
2022/11/11 09:24:05;;;;;;;5.27;4.00;;;11.20;99.90;;;;;;5016601;28;20344;-30
2022/11/11 09:26:34;;;;;;;4.37;3.77;;;11.20;99.90;;;;;;5017278;28;20226;-30
2022/11/11 09:29:04;;;;;;;3.90;3.47;;;11.30;99.90;;;;;;5005826;28;20213;-30
2022/11/11 09:31:33;;;;;;;4.47;3.20;;;11.30;99.90;;;;;;5007076;28;20218;-31
2022/11/11 09:34:15;;;;;;;4.87;3.23;;;11.40;99.90;;;;;;5009921;28;20190;-32
2022/11/11 09:36:42;;;;;;;3.93;3.20;;;11.50;99.90;;;;;;5019237;28;20304;-31
2022/11/11 09:39:09;;;;;;;4.53;2.80;;;11.50;99.90;;;;;;5016986;28;20220;-31
2022/11/11 09:41:53;;;;;;;3.53;2.97;;;11.50;99.90;;;;;;5009285;28;20211;-31
2022/11/11 09:44:43;;;;;;;3.67;2.63;;;11.60;99.90;;;;;;4992626;28;20633;-30
2022/11/11 09:47:29;;;;;;;5.40;2.80;;;11.70;99.90;;;;;;5025280;28;20228;-31
2022/11/11 09:50:15;;;;;;;4.87;2.80;;;11.70;99.90;;;;;;5021237;28;20584;-31
2022/11/11 09:52:54;;;;;;;3.53;2.37;;;11.80;99.90;;;;;;5018235;28;20187;-31
2022/11/11 09:55:39;;;;;;;3.10;2.30;;;11.80;99.90;;;;;;5013737;28;20197;-32
2022/11/11 09:58:17;;;;;;;2.40;2.20;;;11.90;99.90;;;;;;5014942;28;20228;-31
2022/11/11 10:00:56;;;;;;;3.10;2.00;;;11.90;99.90;;;;;;4996957;28;20567;-32
2022/11/11 10:03:25;;;;;;;3.23;2.20;;;12.00;99.90;;;;;;5008428;28;20860;-32
2022/11/11 10:06:08;;;;;;;3.23;1.80;;;12.00;99.90;;;;;;4986705;28;20221;-30
2022/11/11 10:08:48;;;;;;;2.90;1.93;;;12.10;99.90;;;;;;5004443;28;20218;-31
2022/11/11 10:11:28;;;;;;;2.07;1.60;;;12.20;99.90;;;;;;5008443;28;20274;-30
2022/11/11 10:13:55;;;;;;;1.93;1.63;;;12.20;99.90;;;;;;5002546;28;20320;-31
2022/11/11 10:16:25;;;;;;;2.00;1.73;;;12.30;99.90;;;;;;5002468;28;20615;-31
2022/11/11 10:19:07;;;;;;;2.17;1.57;;;12.40;99.90;;;;;;4986524;28;20216;-30
2022/11/11 10:21:51;;;;;;;1.60;1.47;;;12.40;99.90;;;;;;4987726;28;20202;-31
2022/11/11 10:24:43;;;;;;;1.87;1.50;;;12.50;99.90;;;;;;5006533;28;20206;-32
2022/11/11 10:27:21;;;;;;;1.97;1.63;;;12.60;99.90;;;;;;5021135;28;20319;-32
2022/11/11 10:29:51;;;;;;;1.77;1.60;;;12.60;99.90;;;;;;5024676;28;20201;-31
2022/11/11 10:32:28;;;;;;;2.13;1.60;;;12.70;99.90;;;;;;5024102;28;20209;-31
2022/11/11 10:35:13;;;;;;;2.70;1.30;;;12.80;99.90;;;;;;4997461;28;20218;-31
2022/11/11 10:37:42;;;;;;;1.83;1.07;;;12.80;99.90;;;;;;4996277;28;20201;-32
2022/11/11 10:40:34;;;;;;;2.27;1.40;;;12.90;99.90;;;;;;5006158;28;20951;-31
2022/11/11 10:43:03;;;;;;;2.23;1.07;;;12.90;99.90;;;;;;5013433;28;20205;-32
2022/11/11 10:45:45;;;;;;;1.47;1.20;;;12.90;99.90;;;;;;5020608;28;20243;-30
2022/11/11 10:48:17;;;;;;;2.37;1.20;;;13.00;99.90;;;;;;5010917;28;20232;-31
2022/11/11 10:50:54;;;;;;;1.90;1.20;;;13.00;99.90;;;;;;5018098;28;20229;-31
2022/11/11 10:53:38;;;;;;;2.33;1.40;;;13.10;99.90;;;;;;4987753;28;20558;-31
2022/11/11 10:56:35;;;;;;;1.93;0.90;;;13.20;99.90;;;;;;5008685;28;20242;-32
2022/11/11 10:59:24;;;;;;;1.17;0.97;;;13.30;99.90;;;;;;5014359;28;20278;-31
2022/11/11 11:02:06;;;;;;;2.43;1.13;;;13.30;99.90;;;;;;5027565;28;20229;-32
2022/11/11 11:04:49;;;;;;;3.20;1.10;;;13.30;99.90;;;;;;5036086;28;20744;-32
2022/11/11 11:07:28;;;;;;;1.97;1.00;;;13.40;99.90;;;;;;5026166;28;20284;-31
2022/11/11 11:10:06;;;;;;;2.10;1.10;;;13.40;99.90;;;;;;5006530;28;20212;-31
2022/11/11 11:12:59;;;;;;;3.23;1.27;;;13.50;99.90;;;;;;5018591;28;20209;-32
2022/11/11 11:15:32;;;;;;;1.17;0.87;;;13.60;99.90;;;;;;5010414;28;20198;-31
2022/11/11 11:18:14;;;;;;;1.97;1.00;;;13.60;99.90;;;;;;5008138;28;20204;-31
2022/11/11 11:20:58;;;;;;;4.73;1.27;;;13.70;99.90;;;;;;4998113;28;20200;-31
2022/11/11 11:23:41;;;;;;;1.10;1.00;;;13.70;99.90;;;;;;5002369;28;20324;-31
2022/11/11 11:26:13;;;;;;;2.17;1.10;;;13.80;99.90;;;;;;5009948;28;20229;-32
2022/11/11 11:29:05;;;;;;;1.93;0.90;;;13.80;99.90;;;;;;5023910;28;20968;-31
2022/11/11 11:31:43;;;;;;;4.17;1.20;;;13.90;99.90;;;;;;5012594;28;20660;-32
2022/11/11 11:34:10;;;;;;;1.87;1.10;;;14.00;99.90;;;;;;5012903;28;20204;-31
2022/11/11 11:36:40;;;;;;;1.93;1.17;;;14.00;99.90;;;;;;5011640;28;20219;-31
2022/11/11 11:39:07;;;;;;;1.63;1.17;;;14.00;99.90;;;;;;5010105;28;20644;-31
2022/11/11 11:41:36;;;;;;;2.57;1.30;;;14.10;99.90;;;;;;5008505;28;20694;-31
2022/11/11 11:44:23;;;;;;;1.43;1.27;;;14.10;99.90;;;;;;4994070;28;20579;-31
2022/11/11 11:46:56;;;;;;;2.67;1.10;;;14.10;99.90;;;;;;4993621;28;20771;-31
2022/11/11 11:49:51;;;;;;;2.07;1.20;;;14.20;99.90;;;;;;5009690;28;20267;-31
2022/11/11 11:52:34;;;;;;;2.17;1.00;;;14.20;99.90;;;;;;5020178;28;20206;-31
2022/11/11 11:55:32;;;;;;;1.97;0.97;;;14.30;99.90;;;;;;5018319;28;20219;-31
2022/11/11 11:58:11;;;;;;;2.83;1.23;;;14.30;99.90;;;;;;5022703;28;20216;-31
2022/11/11 12:01:10;;;;;;;3.37;1.50;;;14.30;99.90;;;;;;5025127;28;20212;-30
2022/11/11 12:03:58;;;;;;;3.00;1.10;;;14.40;99.90;;;;;;5003717;28;20217;-31
2022/11/11 12:06:42;;;;;;;3.10;1.50;;;14.40;99.90;;;;;;5001320;28;20226;-30
2022/11/11 12:09:29;;;;;;;2.00;1.20;;;14.40;99.90;;;;;;5008385;28;20704;-30
2022/11/11 12:12:22;;;;;;;1.77;1.07;;;14.50;99.90;;;;;;5027012;28;20205;-31
2022/11/11 12:14:55;;;;;;;1.37;1.10;;;14.50;99.90;;;;;;5006830;28;20217;-30
2022/11/11 12:17:48;;;;;;;1.53;1.00;;;14.60;99.90;;;;;;4991856;28;20221;-31
2022/11/11 12:20:21;;;;;;;1.90;1.03;;;14.60;99.90;;;;;;4994049;28;20621;-30
2022/11/11 12:23:17;;;;;;;2.07;1.17;;;14.70;99.90;;;;;;4998806;28;20228;-30
2022/11/11 12:26:07;;;;;;;1.83;1.10;;;14.80;99.90;;;;;;5017710;28;20225;-30
2022/11/11 12:28:45;;;;;;;4.03;1.30;;;14.80;99.90;;;;;;5014561;28;20287;-31
2022/11/11 12:31:12;;;;;;;2.27;1.10;;;14.80;99.90;;;;;;5018717;28;20201;-30
2022/11/11 12:33:49;;;;;;;2.47;1.10;;;14.90;99.90;;;;;;5008566;28;20553;-30
2022/11/11 12:36:34;;;;;;;1.13;0.90;;;14.90;99.90;;;;;;5016533;28;20208;-30
2022/11/11 12:39:39;;;;;;;1.27;1.00;;;15.00;99.90;;;;;;5019138;28;20608;-30
2022/11/11 12:42:18;;;;;;;2.37;1.17;;;15.00;99.90;;;;;;5020502;28;20205;-29
2022/11/11 12:44:54;;;;;;;1.80;1.20;;;15.10;99.90;;;;;;5008221;28;20220;-29
2022/11/11 12:47:27;;;;;;;2.07;1.17;;;15.10;99.90;;;;;;5017806;28;20260;-29
2022/11/11 12:50:20;;;;;;;3.33;1.40;;;15.20;99.90;;;;;;5021987;28;20655;-29
2022/11/11 12:53:12;;;;;;;1.87;1.20;;;15.30;99.90;;;;;;5032627;28;20204;-29
2022/11/11 12:56:04;;;;;;;2.60;1.33;;;15.30;99.90;;;;;;5017815;28;20208;-29
2022/11/11 12:58:45;;;;;;;2.90;1.30;;;15.40;99.90;;;;;;5013861;28;20205;-29
2022/11/11 13:01:37;;;;;;;2.00;1.20;;;15.40;99.90;;;;;;5027699;28;20207;-29
2022/11/11 13:04:36;;;;;;;2.90;1.23;;;15.50;99.90;;;;;;5012077;28;20213;-29
2022/11/11 13:07:51;;;;;;;3.23;1.50;;;15.50;99.90;;;;;;5019013;28;20644;-29
2022/11/11 13:10:51;;;;;;;4.30;1.53;;;15.60;99.90;;;;;;5013131;28;20635;-29
2022/11/11 13:13:42;;;;;;;2.93;1.30;;;15.60;99.90;;;;;;4989672;28;20605;-29
2022/11/11 13:16:09;;;;;;;1.60;1.20;;;15.70;99.90;;;;;;5003655;28;20699;-29
2022/11/11 13:18:55;;;;;;;2.63;1.23;;;15.70;99.90;;;;;;5005230;28;20640;-29
2022/11/11 13:21:30;;;;;;;2.50;1.13;;;15.70;99.90;;;;;;5004727;28;20755;-29
2022/11/11 13:23:57;;;;;;;2.30;1.30;;;15.80;99.90;;;;;;5005829;28;20223;-29
2022/11/11 13:26:42;;;;;;;2.70;1.40;;;15.80;99.90;;;;;;5002600;28;20291;-29
2022/11/11 13:29:31;;;;;;;2.57;1.20;;;15.80;99.90;;;;;;5023912;28;20205;-29
2022/11/11 13:32:04;;;;;;;3.57;1.67;;;15.90;99.90;;;;;;5025273;28;20302;-30
2022/11/11 13:34:33;;;;;;;3.47;2.37;;;15.90;99.90;;;;;;5000428;28;20581;-29
2022/11/11 13:37:04;;;;;;;3.47;1.80;;;15.90;99.90;;;;;;5014716;28;20200;-29
2022/11/11 13:39:37;;;;;;;3.53;1.73;;;16.00;99.90;;;;;;5020412;28;20274;-29
2022/11/11 13:42:12;;;;;;;4.03;1.70;;;16.00;99.90;;;;;;5000802;28;20720;-29
2022/11/11 13:44:53;;;;;;;2.73;1.57;;;16.00;99.90;;;;;;5015313;28;20201;-29
2022/11/11 13:47:28;;;;;;;4.10;1.80;;;16.00;99.90;;;;;;5010058;28;20243;-30
2022/11/11 13:50:12;;;;;;;3.37;1.50;;;16.10;99.90;;;;;;4986959;28;20218;-30
2022/11/11 13:52:57;;;;;;;3.30;1.90;;;16.10;99.90;;;;;;5015513;28;20210;-29
2022/11/11 13:55:40;;;;;;;4.10;1.80;;;16.10;99.90;;;;;;5019537;28;20715;-30
2022/11/11 13:58:24;;;;;;;2.77;1.77;;;16.10;99.90;;;;;;5028714;28;20221;-29
2022/11/11 14:01:01;;;;;;;3.83;2.00;;;16.10;99.90;;;;;;5027723;28;20203;-29
2022/11/11 14:03:36;;;;;;;4.40;2.43;;;16.10;99.90;;;;;;5013822;28;20209;-29
2022/11/11 14:06:15;;;;;;;3.50;1.93;;;16.10;99.90;;;;;;5010328;28;20222;-29
2022/11/11 14:08:53;;;;;;;3.77;1.93;;;16.10;99.90;;;;;;5011400;28;20686;-29
2022/11/11 14:11:24;;;;;;;4.07;2.00;;;16.10;99.90;;;;;;5020141;28;20201;-29
2022/11/11 14:13:55;;;;;;;3.83;2.03;;;16.10;99.90;;;;;;5012060;28;20244;-29
2022/11/11 14:16:36;;;;;;;4.80;2.03;;;16.10;99.90;;;;;;5012834;28;20252;-29
2022/11/11 14:19:18;;;;;;;5.33;2.43;;;16.10;99.90;;;;;;4999750;28;20207;-29
2022/11/11 14:21:55;;;;;;;4.07;2.07;;;16.10;99.90;;;;;;5007931;28;20204;-29
2022/11/11 14:24:42;;;;;;;3.77;2.07;;;16.10;99.90;;;;;;4997427;28;20237;-29
2022/11/11 14:27:19;;;;;;;4.03;2.27;;;16.10;99.90;;;;;;5019678;28;20213;-30
2022/11/11 14:29:52;;;;;;;5.87;2.00;;;16.10;99.90;;;;;;5021587;28;20316;-29